Time;durP1;ratioP1;P1;durP2;ratioP2;P2;SDS_P1;SDS_P2;PMS_P1;PMS_P2;Temp;Humidity;BMP_temperature;BMP_pressure;BME280_temperature;BME280_humidity;BME280_pressure;Samples;Min_cycle;Max_cycle;Signal;HPM_P1;HPM_P2
2022/02/28 00:02:02;;;;;;;;;44.00;40.67;;;;;4.30;58.78;102159.41;5014028;28;45548;-82
2022/02/28 00:04:28;;;;;;;;;36.50;36.50;;;;;4.42;58.85;102199.44;5013748;28;47717;-83
2022/02/28 00:06:53;;;;;;;;;50.00;43.33;;;;;3.48;58.91;102031.22;5013813;28;44822;-82
2022/02/28 00:09:20;;;;;;;;;47.75;42.25;;;;;4.37;59.17;102193.84;5013579;28;45300;-83
2022/02/28 00:11:46;;;;;;;;;55.50;46.00;;;;;4.35;59.00;102192.84;5014444;28;45668;-82
2022/02/28 00:14:11;;;;;;;;;51.00;41.00;;;;;3.40;58.79;102028.00;5013808;28;45495;-85
2022/02/28 00:16:37;;;;;;;;;49.75;44.25;;;;;4.02;58.95;102149.31;5013832;28;45462;-82
2022/02/28 00:19:03;;;;;;;;;59.25;47.00;;;;;4.29;59.28;102194.94;5013923;28;45447;-87
2022/02/28 00:21:28;;;;;;;;;54.75;45.50;;;;;4.06;59.38;102158.28;5013693;28;45502;-87
2022/02/28 00:23:54;;;;;;;;;48.25;42.75;;;;;4.01;59.16;102146.59;4995470;28;46258;-81
2022/02/28 00:26:19;;;;;;;;;51.50;46.75;;;;;4.26;59.35;102198.97;5013578;28;45594;-88
2022/02/28 00:28:45;;;;;;;;;51.67;44.00;;;;;3.96;59.37;102158.31;5014021;28;45446;-86
2022/02/28 00:31:10;;;;;;;;;52.67;44.67;;;;;3.68;59.56;102123.84;5013461;28;45290;-81
2022/02/28 00:33:36;;;;;;;;;44.67;39.67;;;;;4.12;59.73;102203.91;4995380;28;47286;-86
2022/02/28 00:36:01;;;;;;;;;50.25;41.25;;;;;4.04;59.53;102193.66;5013749;28;45532;-80
2022/02/28 00:38:27;;;;;;;;;28.75;24.00;;;;;3.98;59.60;102193.13;5013338;28;45231;-82
2022/02/28 00:40:52;;;;;;;;;41.00;38.50;;;;;3.65;59.58;102147.03;4995665;28;45676;-86
2022/02/28 00:43:18;;;;;;;;;39.25;35.50;;;;;3.45;59.75;102117.66;5013202;28;46305;-83
2022/02/28 00:45:43;;;;;;;;;38.75;36.50;;;;;3.48;59.42;102133.47;5013674;28;45246;-87
2022/02/28 00:48:09;;;;;;;;;35.33;34.00;;;;;3.38;59.79;102116.97;5013585;28;45584;-81
2022/02/28 00:50:35;;;;;;;;;35.50;32.25;;;;;3.84;60.15;102210.16;5013270;28;45279;-87
2022/02/28 00:53:01;;;;;;;;;38.75;36.50;;;;;3.45;59.90;102154.03;5013167;28;46381;-83
2022/02/28 00:55:27;;;;;;;;;37.50;35.75;;;;;3.79;60.20;102211.47;5013316;28;45619;-80
2022/02/28 00:57:52;;;;;;;;;43.75;41.00;;;;;3.77;60.30;102216.56;5013327;28;45440;-86
2022/02/28 01:00:19;;;;;;;;;34.00;30.50;;;;;3.76;60.20;102217.34;5013326;28;45396;-82
2022/02/28 01:02:46;;;;;;;;;46.25;43.00;;;;;3.05;60.19;102101.25;5012947;28;46503;-81
2022/02/28 01:05:13;;;;;;;;;41.25;38.25;;;;;3.42;60.33;102179.75;5013068;28;45483;-87
2022/02/28 01:07:39;;;;;;;;;43.00;39.50;;;;;3.73;60.65;102218.75;5013184;28;45379;-86
2022/02/28 01:10:08;;;;;;;;;45.00;39.25;;;;;3.47;60.44;102178.44;5012868;28;45385;-82
2022/02/28 01:12:33;;;;;;;;;45.00;42.00;;;;;3.39;60.52;102163.88;5013070;28;45342;-84
2022/02/28 01:14:58;;;;;;;;;42.50;40.00;;;;;3.45;60.47;102182.63;4995283;28;45365;-80
2022/02/28 01:17:24;;;;;;;;;49.50;43.00;;;;;3.51;60.39;102205.63;4995381;28;45730;-80
2022/02/28 01:19:52;;;;;;;;;45.00;39.50;;;;;3.00;60.60;102112.00;4995010;28;45485;-87
2022/02/28 01:22:17;;;;;;;;;47.50;42.75;;;;;3.60;60.75;102235.00;5012903;28;46270;-87
2022/02/28 01:24:43;;;;;;;;;43.00;39.00;;;;;3.52;60.71;102212.63;5012694;28;45336;-81
2022/02/28 01:27:09;;;;;;;;;42.75;38.75;;;;;3.27;60.45;102155.94;5013098;28;45805;-84
2022/02/28 01:29:34;;;;;;;;;40.50;35.75;;;;;3.60;60.50;102214.22;4995179;28;45698;-84
2022/02/28 01:32:01;;;;;;;;;32.25;30.50;;;;;3.48;60.44;102193.25;5012736;28;46526;-88
2022/02/28 01:34:26;;;;;;;;;42.25;39.00;;;;;3.29;60.49;102162.16;4994809;28;45437;-83
2022/02/28 01:36:51;;;;;;;;;42.33;32.00;;;;;2.55;60.41;102026.75;5013119;28;45444;-85
2022/02/28 01:39:17;;;;;;;;;42.50;35.50;;;;;3.64;60.47;102231.88;5012517;28;45798;-81
2022/02/28 01:41:43;;;;;;;;;39.25;37.50;;;;;3.65;60.56;102231.13;5013488;28;45598;-85
2022/02/28 01:44:10;;;;;;;;;39.50;34.00;;;;;3.61;60.61;102224.72;5013939;28;45367;-83
2022/02/28 01:46:37;;;;;;;;;32.25;31.75;;;;;3.41;60.73;102184.81;5016376;28;45448;-87
2022/02/28 01:49:03;;;;;;;;;39.50;35.00;;;;;3.17;60.86;102139.44;5016809;28;45562;-82
2022/02/28 01:51:28;;;;;;;;;37.00;33.50;;;;;3.41;60.75;102184.81;5016130;28;46538;-85
2022/02/28 01:53:54;;;;;;;;;41.25;36.75;;;;;3.18;60.59;102144.75;5015937;28;45440;-82
2022/02/28 01:56:21;;;;;;;;;32.50;29.75;;;;;3.50;60.79;102207.31;5016214;28;45269;-86
2022/02/28 01:58:46;;;;;;;;;40.50;38.00;;;;;3.49;61.13;102207.16;5016021;28;45555;-82
2022/02/28 02:01:11;;;;;;;;;42.25;39.00;;;;;3.21;60.91;102159.72;5016085;28;45436;-80
2022/02/28 02:03:37;;;;;;;;;41.75;36.00;;;;;3.44;61.19;102203.25;5016208;28;45400;-86
2022/02/28 02:06:06;;;;;;;;;45.50;39.50;;;;;3.38;61.06;102205.34;5016172;28;45369;-81
2022/02/28 02:08:32;;;;;;;;;39.50;33.50;;;;;3.09;60.71;102155.25;5016010;28;45486;-85
2022/02/28 02:10:59;;;;;;;;;36.50;33.00;;;;;3.05;60.95;102158.38;5016022;28;46280;-81
2022/02/28 02:13:24;;;;;;;;;39.75;36.00;;;;;3.21;61.09;102184.00;5015644;28;45393;-84
2022/02/28 02:15:50;;;;;;;;;33.75;30.75;;;;;3.36;61.31;102203.53;5015866;28;45398;-86
2022/02/28 02:18:15;;;;;;;;;40.00;31.75;;;;;2.58;61.07;102072.06;5015672;28;45235;-85
2022/02/28 02:20:41;;;;;;;;;34.00;32.25;;;;;3.36;61.23;102206.13;5015780;28;46494;-81
2022/02/28 02:23:09;;;;;;;;;27.50;25.25;;;;;3.15;61.16;102174.75;5015243;28;45385;-85
2022/02/28 02:25:36;;;;;;;;;24.75;22.25;;;;;2.98;61.18;102145.63;4998205;28;45573;-81
2022/02/28 02:28:03;;;;;;;;;28.75;27.50;;;;;3.17;61.51;102194.00;5015717;28;45575;-80
2022/02/28 02:30:29;;;;;;;;;34.00;32.00;;;;;1.97;61.37;101986.25;5015382;28;46160;-80
2022/02/28 02:32:55;;;;;;;;;34.75;31.25;;;;;3.24;61.38;102207.63;5015308;28;45419;-81
2022/02/28 02:35:20;;;;;;;;;30.00;28.00;;;;;2.84;61.45;102147.00;4997761;28;45412;-84
2022/02/28 02:37:46;;;;;;;;;28.75;26.50;;;;;3.20;61.46;102199.44;5015220;28;45448;-80
2022/02/28 02:40:12;;;;;;;;;34.75;34.50;;;;;2.50;61.62;102078.25;5015242;28;46455;-81
2022/02/28 02:42:37;;;;;;;;;41.75;38.50;;;;;3.19;61.74;102202.81;5015132;28;45383;-80
2022/02/28 02:45:03;;;;;;;;;26.75;25.00;;;;;3.19;61.25;102211.50;5015215;28;45386;-87
2022/02/28 02:47:28;;;;;;;;;27.50;27.25;;;;;3.05;61.43;102178.22;5015480;28;45370;-88
2022/02/28 02:49:54;;;;;;;;;25.33;24.67;;;;;1.83;61.62;101965.97;4997074;28;47064;-81
2022/02/28 02:52:19;;;;;;;;;24.67;23.33;;;;;3.16;61.53;102207.75;5015253;28;45345;-83
2022/02/28 02:54:44;;;;;;;;;35.25;32.00;;;;;2.81;61.49;102145.84;5014181;28;45606;-86
2022/02/28 02:57:10;;;;;;;;;30.25;28.50;;;;;3.04;61.42;102186.81;5015018;28;45608;-79
2022/02/28 02:59:35;;;;;;;;;32.33;29.00;;;;;2.90;62.03;102167.41;5014809;28;48034;-86
2022/02/28 03:02:01;;;;;;;;;32.00;29.00;;;;;2.75;61.81;102150.47;5014863;28;45446;-82
2022/02/28 03:04:26;;;;;;;;;24.00;22.25;;;;;3.01;61.97;102190.06;5015451;28;45493;-86
2022/02/28 03:06:52;;;;;;;;;25.00;24.25;;;;;3.10;61.94;102195.13;5015222;28;45469;-87
2022/02/28 03:09:17;;;;;;;;;28.00;26.00;;;;;2.55;61.71;102108.09;5014537;28;45653;-80
2022/02/28 03:11:44;;;;;;;;;27.75;24.50;;;;;2.98;61.91;102189.78;5014666;28;45414;-83
2022/02/28 03:14:11;;;;;;;;;29.75;24.00;;;;;3.07;62.00;102198.38;5014608;28;45318;-79
2022/02/28 03:16:37;;;;;;;;;21.50;20.50;;;;;3.00;61.88;102206.38;5014818;28;45492;-80
2022/02/28 03:19:03;;;;;;;;;29.00;26.00;;;;;3.02;61.93;102207.44;5014879;28;45637;-80
2022/02/28 03:21:28;;;;;;;;;30.75;27.50;;;;;2.64;61.97;102135.66;5015313;28;45582;-82
2022/02/28 03:23:53;;;;;;;;;30.00;25.50;;;;;2.23;61.93;102057.66;5014538;28;45293;-80
2022/02/28 03:26:19;;;;;;;;;17.25;13.50;;;;;2.37;62.15;102095.22;5014779;28;45352;-81
2022/02/28 03:28:44;;;;;;;;;28.67;26.33;;;;;2.53;61.98;102124.31;5014736;28;45457;-88
2022/02/28 03:31:09;;;;;;;;;28.50;22.25;;;;;2.68;62.22;102161.09;5014686;28;45381;-80
2022/02/28 03:33:35;;;;;;;;;24.25;21.75;;;;;2.91;62.31;102210.81;5014665;28;45694;-85
2022/02/28 03:36:01;;;;;;;;;20.50;18.00;;;;;2.88;62.16;102207.00;5014610;28;45445;-82
2022/02/28 03:38:26;;;;;;;;;34.75;32.25;;;;;2.82;62.37;102191.81;5014437;28;45458;-83
2022/02/28 03:40:52;;;;;;;;;33.75;30.75;;;;;2.82;62.21;102194.41;4996793;28;45315;-81
2022/02/28 03:43:17;;;;;;;;;30.25;29.00;;;;;2.71;62.32;102166.56;5014950;28;45526;-87
2022/02/28 03:45:43;;;;;;;;;23.25;22.25;;;;;2.74;62.27;102190.19;5014574;28;45433;-80
2022/02/28 03:48:08;;;;;;;;;28.50;28.25;;;;;2.80;62.33;102202.03;5014182;28;46560;-89
2022/02/28 03:50:34;;;;;;;;;28.75;28.75;;;;;2.77;62.23;102200.88;5014359;28;45504;-84
2022/02/28 03:52:59;;;;;;;;;31.50;28.00;;;;;2.49;62.55;102155.97;5014127;28;45414;-88
2022/02/28 03:55:24;;;;;;;;;27.67;23.67;;;;;2.40;62.61;102139.56;5013836;28;45511;-80
2022/02/28 03:57:50;;;;;;;;;24.00;23.25;;;;;2.37;62.65;102119.47;5014106;28;45386;-84
2022/02/28 04:00:15;;;;;;;;;23.75;21.75;;;;;2.65;62.71;102166.00;5014161;28;45524;-85
2022/02/28 04:02:41;;;;;;;;;27.75;26.25;;;;;2.41;62.62;102125.81;5014398;28;45334;-82
2022/02/28 04:05:07;;;;;;;;;29.67;27.00;;;;;2.72;62.60;102183.97;5014231;28;45620;-81
2022/02/28 04:07:33;;;;;;;;;24.25;23.75;;;;;2.15;62.83;102093.28;5013167;28;45750;-85
2022/02/28 04:09:59;;;;;;;;;27.00;25.00;;;;;2.69;62.65;102182.00;5013707;28;45338;-86
2022/02/28 04:12:24;;;;;;;;;23.50;23.25;;;;;1.98;62.61;102060.66;5014009;28;45701;-80
2022/02/28 04:14:51;;;;;;;;;26.75;24.50;;;;;2.64;62.71;102190.16;5013909;28;45376;-80
2022/02/28 04:17:16;;;;;;;;;24.00;23.50;;;;;2.33;62.68;102138.13;5014583;28;46562;-81
2022/02/28 04:19:42;;;;;;;;;21.75;20.75;;;;;2.43;62.70;102160.59;4996299;28;45302;-84
2022/02/28 04:22:07;;;;;;;;;20.25;19.75;;;;;2.57;62.74;102202.59;5014244;28;45503;-84
2022/02/28 04:24:33;;;;;;;;;28.75;24.75;;;;;1.94;62.83;102089.66;4995807;28;45441;-80
2022/02/28 04:26:58;;;;;;;;;27.50;24.25;;;;;2.23;62.82;102143.25;4995849;28;46272;-88
2022/02/28 04:29:24;;;;;;;;;28.25;25.50;;;;;2.23;63.08;102143.25;5013704;28;45466;-84
2022/02/28 04:31:50;;;;;;;;;33.00;28.00;;;;;2.35;63.02;102171.97;4996096;28;45377;-85
2022/02/28 04:34:15;;;;;;;;;23.67;22.67;;;;;1.96;62.99;102106.25;5013989;28;45506;-84
2022/02/28 04:36:42;;;;;;;;;30.00;29.50;;;;;2.52;62.79;102210.75;5013589;28;45389;-86
2022/02/28 04:39:08;;;;;;;;;20.50;19.75;;;;;2.01;62.61;102124.81;5013173;28;45839;-86
2022/02/28 04:41:33;;;;;;;;;24.25;23.25;;;;;2.44;63.10;102212.63;5013831;28;45496;-87
2022/02/28 04:43:58;;;;;;;;;23.33;20.33;;;;;2.43;63.10;102209.91;5013822;28;45366;-88
2022/02/28 04:46:24;;;;;;;;;21.25;21.25;;;;;1.37;62.99;102029.16;5013346;28;45456;-88
2022/02/28 04:48:49;;;;;;;;;36.75;31.25;;;;;2.36;63.28;102211.00;5013353;28;45408;-87
2022/02/28 04:51:14;;;;;;;;;26.50;26.50;;;;;1.81;63.00;102112.66;5013211;28;45392;-87
2022/02/28 04:53:40;;;;;;;;;33.67;28.33;;;;;2.06;63.38;102165.97;5013251;28;45748;-87
2022/02/28 04:56:05;;;;;;;;;35.75;32.00;;;;;1.71;63.07;102103.13;5013059;28;45357;-83
2022/02/28 04:58:31;;;;;;;;;35.00;30.33;;;;;1.94;63.25;102149.31;5013265;28;45459;-87
2022/02/28 05:00:56;;;;;;;;;29.75;25.50;;;;;1.58;63.30;102096.66;5013440;28;45506;-87
2022/02/28 05:03:22;;;;;;;;;31.75;28.50;;;;;2.23;63.09;102208.09;5013558;28;45335;-81
2022/02/28 05:05:48;;;;;;;;;27.33;23.33;;;;;2.20;63.04;102215.59;5013176;28;46244;-84
2022/02/28 05:08:13;;;;;;;;;25.75;21.00;;;;;1.93;62.80;102169.91;5012632;28;45370;-82
2022/02/28 05:10:39;;;;;;;;;27.00;22.00;;;;;1.84;63.14;102166.47;5013700;28;45573;-87
2022/02/28 05:13:04;;;;;;;;;25.00;23.25;;;;;1.84;63.35;102167.38;5013035;28;45388;-88
2022/02/28 05:15:29;;;;;;;;;21.75;19.00;;;;;1.84;63.54;102167.38;4995090;28;46989;-81
2022/02/28 05:17:55;;;;;;;;;29.00;26.50;;;;;1.96;63.51;102207.38;5013710;28;45772;-81
2022/02/28 05:20:20;;;;;;;;;23.33;23.00;;;;;1.79;63.58;102179.91;5016664;28;45349;-81
2022/02/28 05:22:46;;;;;;;;;23.33;22.33;;;;;2.11;63.63;102238.09;4998415;28;45557;-85
2022/02/28 05:25:12;;;;;;;;;23.25;23.25;;;;;1.62;63.75;102158.38;5016326;28;45293;-81
2022/02/28 05:27:43;;;;;;;;;26.25;22.50;;;;;1.70;63.86;102165.19;5016601;28;45336;-80
2022/02/28 05:30:10;;;;;;;;;21.00;20.00;;;;;1.49;63.74;102126.16;5016429;28;45357;-88
2022/02/28 05:32:37;;;;;;;;;28.00;25.25;;;;;2.07;63.90;102239.50;4998688;28;45468;-85
2022/02/28 05:35:04;;;;;;;;;20.00;18.25;;;;;2.03;63.32;102246.09;5016472;28;45647;-80
2022/02/28 05:37:30;;;;;;;;;23.50;19.25;;;;;1.83;63.77;102203.53;5016420;28;45273;-87
2022/02/28 05:39:55;;;;;;;;;15.50;15.50;;;;;2.02;63.98;102232.94;5016401;28;45362;-80
2022/02/28 05:42:21;;;;;;;;;23.75;19.00;;;;;1.99;64.18;102228.41;5015184;28;45380;-79
2022/02/28 05:44:46;;;;;;;;;19.50;16.00;;;;;1.89;63.93;102212.78;5016301;28;46520;-82
2022/02/28 05:47:12;;;;;;;;;18.00;16.25;;;;;1.92;63.83;102231.22;5016031;28;45421;-80
2022/02/28 05:49:37;;;;;;;;;19.25;18.75;;;;;1.73;63.91;102201.75;5016769;28;45519;-83
2022/02/28 05:52:03;;;;;;;;;18.75;16.75;;;;;1.86;63.94;102229.72;4998465;28;45291;-85
2022/02/28 05:54:28;;;;;;;;;20.50;18.75;;;;;1.69;63.73;102194.47;5015744;28;46191;-80
2022/02/28 05:56:54;;;;;;;;;15.33;15.00;;;;;1.83;63.95;102229.44;5016683;28;45484;-87
2022/02/28 05:59:19;;;;;;;;;16.00;15.00;;;;;1.93;63.91;102251.19;5016407;28;45460;-88
2022/02/28 06:01:44;;;;;;;;;21.00;20.00;;;;;1.66;64.07;102207.13;5016443;28;45257;-85
2022/02/28 06:04:10;;;;;;;;;22.00;19.67;;;;;1.59;64.12;102199.56;5016357;28;45596;-86
2022/02/28 06:06:35;;;;;;;;;19.67;18.67;;;;;1.76;64.40;102228.84;5016243;28;45667;-80
2022/02/28 06:09:03;;;;;;;;;28.50;26.50;;;;;1.89;64.32;102253.34;5015634;28;45469;-86
2022/02/28 06:11:29;;;;;;;;;23.00;21.00;;;;;1.96;64.23;102267.00;5015927;28;45450;-83
2022/02/28 06:13:55;;;;;;;;;23.00;22.75;;;;;1.74;63.95;102222.63;4998027;28;47711;-83
2022/02/28 06:16:20;;;;;;;;;26.00;22.33;;;;;1.93;64.07;102264.16;5016188;28;45414;-84
2022/02/28 06:18:45;;;;;;;;;24.50;23.50;;;;;1.50;64.05;102192.75;4998119;28;45310;-81
2022/02/28 06:21:11;;;;;;;;;29.25;22.50;;;;;1.88;63.90;102261.91;5016086;28;45555;-80
2022/02/28 06:23:36;;;;;;;;;21.00;19.75;;;;;1.64;63.78;102229.41;5015363;28;46942;-86
2022/02/28 06:26:01;;;;;;;;;23.33;21.00;;;;;1.13;63.58;102139.16;5015605;28;45412;-86
2022/02/28 06:28:31;;;;;;;;;24.50;19.00;;;;;1.57;63.93;102220.13;5015858;28;45560;-81
2022/02/28 06:30:56;;;;;;;;;24.50;22.50;;;;;1.69;63.90;102241.13;5014937;28;45413;-85
2022/02/28 06:33:21;;;;;;;;;25.75;24.75;;;;;1.12;63.86;102137.31;5015633;28;45352;-81
2022/02/28 06:35:48;;;;;;;;;23.00;19.75;;;;;1.24;63.77;102166.06;5015959;28;45575;-81
2022/02/28 06:38:18;;;;;;;;;22.00;17.00;;;;;1.78;64.05;102262.72;4997367;28;45372;-84
2022/02/28 06:40:46;;;;;;;;;22.25;19.25;;;;;1.75;64.08;102263.31;4997808;28;45638;-84
2022/02/28 06:43:20;;;;;;;;;20.50;19.00;;;;;1.76;64.06;102270.31;5015477;28;45473;-87
2022/02/28 06:45:46;;;;;;;;;15.75;15.75;;;;;1.60;64.21;102246.34;5015501;28;45318;-82
2022/02/28 06:48:11;;;;;;;;;23.00;21.75;;;;;1.36;64.25;102212.94;5015170;28;45448;-88
2022/02/28 06:50:36;;;;;;;;;24.50;20.50;;;;;1.47;64.17;102239.06;5015316;28;45672;-84
2022/02/28 06:53:02;;;;;;;;;29.50;25.00;;;;;1.11;64.30;102176.03;4997214;28;47013;-87
2022/02/28 06:55:27;;;;;;;;;36.00;35.00;;;;;1.66;64.59;102271.91;5015222;28;45383;-79
2022/02/28 06:57:53;;;;;;;;;1.00;1.00;;;;;1.76;64.58;102284.97;5015488;28;45351;-86
2022/02/28 07:00:18;;;;;;;;;28.50;26.25;;;;;1.61;64.66;102249.84;5015289;28;45578;-85
2022/02/28 07:02:44;;;;;;;;;34.50;33.50;;;;;1.43;64.48;102218.84;5014940;28;46687;-80
2022/02/28 07:05:09;;;;;;;;;65.33;54.33;;;;;1.70;64.56;102259.38;5015099;28;45457;-81
2022/02/28 07:07:36;;;;;;;;;59.25;48.50;;;;;1.88;64.75;102287.81;5014698;28;45393;-84
2022/02/28 07:10:02;;;;;;;;;61.50;49.50;;;;;1.94;64.68;102291.88;5015208;28;45239;-81
2022/02/28 07:12:29;;;;;;;;;58.25;49.75;;;;;1.63;64.35;102225.00;5015652;28;45345;-80
2022/02/28 07:14:54;;;;;;;;;61.75;50.50;;;;;1.73;64.35;102227.69;5014901;28;45429;-83
2022/02/28 07:17:19;;;;;;;;;59.00;49.67;;;;;1.72;64.29;102225.84;5014880;28;45444;-80
2022/02/28 07:19:45;;;;;;;;;60.00;50.67;;;;;1.55;64.18;102186.31;5014884;28;45533;-87
2022/02/28 07:22:10;;;;;;;;;56.00;45.00;;;;;1.93;64.25;102253.78;5014195;28;46096;-88
2022/02/28 07:24:35;;;;;;;;;50.50;44.75;;;;;1.72;64.31;102205.09;4996345;28;45353;-86
2022/02/28 07:27:01;;;;;;;;;36.25;32.50;;;;;1.71;64.40;102199.00;5014764;28;45572;-87
2022/02/28 07:29:27;;;;;;;;;30.50;28.50;;;;;2.19;64.54;102295.09;5014881;28;45580;-85
2022/02/28 07:31:52;;;;;;;;;36.50;30.50;;;;;1.89;64.43;102230.94;5014434;28;46178;-83
2022/02/28 07:34:18;;;;;;;;;30.25;28.75;;;;;1.84;64.76;102216.63;5014450;28;45520;-87
2022/02/28 07:36:43;;;;;;;;;34.67;31.33;;;;;1.99;64.55;102223.22;5014967;28;45326;-80
2022/02/28 07:39:08;;;;;;;;;48.00;42.25;;;;;1.89;64.61;102207.59;5014606;28;45445;-80
2022/02/28 07:41:34;;;;;;;;;53.33;47.33;;;;;2.40;64.58;102288.38;5014326;28;45457;-83
2022/02/28 07:43:59;;;;;;;;;471.75;401.25;;;;;1.40;64.35;102104.56;5014360;28;45472;-85
2022/02/28 07:46:24;;;;;;;;;104.67;95.67;;;;;2.55;64.58;102286.25;5014442;28;45384;-86
2022/02/28 07:48:50;;;;;;;;;497.67;407.67;;;;;2.01;64.27;102190.56;5014318;28;45376;-85
2022/02/28 07:51:15;;;;;;;;;635.67;499.67;;;;;2.31;64.10;102253.78;5014045;28;45362;-81
2022/02/28 07:53:41;;;;;;;;;141.50;122.25;;;;;2.76;64.16;102302.91;5013912;28;45364;-81
2022/02/28 07:56:07;;;;;;;;;151.67;138.33;;;;;2.10;64.05;102192.19;5014444;28;45360;-82
2022/02/28 07:58:32;;;;;;;;;100.00;83.50;;;;;2.36;64.31;102207.50;5014361;28;45455;-83
2022/02/28 08:00:57;;;;;;;;;86.50;67.75;;;;;2.99;64.27;102315.34;5013916;28;45409;-88
2022/02/28 08:03:23;;;;;;;;;80.00;63.00;;;;;2.72;64.38;102248.88;4996139;28;46534;-86
2022/02/28 08:05:48;;;;;;;;;64.33;51.00;;;;;3.02;64.24;102308.75;5014329;28;45273;-82
2022/02/28 08:08:14;;;;;;;;;42.00;40.75;;;;;3.15;64.07;102315.94;5013765;28;45456;-81
2022/02/28 08:10:39;;;;;;;;;47.25;40.75;;;;;3.24;64.09;102313.25;4996560;28;46384;-86
2022/02/28 08:13:05;;;;;;;;;37.75;35.50;;;;;3.26;63.94;102306.53;5014119;28;45315;-84
2022/02/28 08:15:31;;;;;;;;;45.00;35.50;;;;;3.40;63.95;102298.25;5014392;28;45438;-81
2022/02/28 08:17:56;;;;;;;;;34.25;30.75;;;;;3.46;63.81;102298.78;5014041;28;45293;-85
2022/02/28 08:20:23;;;;;;;;;35.75;31.25;;;;;2.93;63.42;102204.03;5014045;28;46565;-84
2022/02/28 08:22:49;;;;;;;;;34.75;31.00;;;;;3.29;63.55;102240.13;5013325;28;45482;-81
2022/02/28 08:25:14;;;;;;;;;30.50;28.00;;;;;3.66;63.62;102295.34;5014447;28;45493;-81
2022/02/28 08:27:40;;;;;;;;;33.75;27.75;;;;;3.74;63.51;102285.56;5014032;28;45480;-84
2022/02/28 08:30:06;;;;;;;;;27.75;22.75;;;;;3.81;63.38;102300.94;5013541;28;46365;-82
2022/02/28 08:32:32;;;;;;;;;19.75;17.50;;;;;3.70;63.07;102258.44;5014079;28;45739;-87
2022/02/28 08:34:57;;;;;;;;;23.00;19.25;;;;;3.79;62.88;102253.06;5014324;28;45511;-84
2022/02/28 08:37:23;;;;;;;;;15.67;14.67;;;;;2.99;62.77;102092.00;5014204;28;45494;-88
2022/02/28 08:39:48;;;;;;;;;15.00;15.00;;;;;4.00;62.72;102256.63;5013163;28;46070;-85
2022/02/28 08:42:13;;;;;;;;;17.75;17.00;;;;;3.83;62.58;102217.06;5013663;28;45457;-82
2022/02/28 08:44:39;;;;;;;;;20.67;17.33;;;;;3.69;62.43;102169.88;5014035;28;45633;-87
2022/02/28 08:47:04;;;;;;;;;21.50;20.50;;;;;3.81;62.06;102189.13;5014007;28;45377;-86
2022/02/28 08:49:30;;;;;;;;;16.25;15.25;;;;;4.09;61.81;102228.78;5013548;28;46338;-86
2022/02/28 08:51:55;;;;;;;;;22.25;19.50;;;;;4.46;61.65;102277.00;5013758;28;45600;-80
2022/02/28 08:54:22;;;;;;;;;15.50;15.00;;;;;4.27;61.51;102229.41;5019477;28;45391;-85
2022/02/28 08:56:47;;;;;;;;;17.75;16.50;;;;;4.61;61.22;102275.69;5020174;28;45318;-82
2022/02/28 08:59:13;;;;;;;;;22.50;21.00;;;;;4.12;60.78;102184.81;5019641;28;46495;-87
2022/02/28 09:01:38;;;;;;;;;17.67;15.33;;;;;4.56;60.97;102250.97;5020349;28;45514;-88
2022/02/28 09:04:04;;;;;;;;;17.25;15.50;;;;;4.81;60.49;102282.53;5020117;28;45392;-81
2022/02/28 09:06:29;;;;;;;;;18.00;14.00;;;;;4.30;60.28;102172.41;5020159;28;45490;-82
2022/02/28 09:08:55;;;;;;;;;13.00;13.00;;;;;4.95;60.54;102275.84;5019450;28;45363;-80
2022/02/28 09:11:22;;;;;;;;;15.67;15.67;;;;;4.71;60.14;102221.75;5002610;28;45381;-80
2022/02/28 09:13:48;;;;;;;;;17.50;15.25;;;;;4.85;60.49;102231.59;5020685;28;45234;-79
2022/02/28 09:16:14;;;;;;;;;16.75;14.00;;;;;4.63;59.68;102187.25;5020674;28;45526;-85
2022/02/28 09:18:39;;;;;;;;;14.33;14.33;;;;;5.22;59.07;102276.25;5002650;28;46232;-85
2022/02/28 09:21:04;;;;;;;;;20.25;17.00;;;;;5.01;59.05;102232.06;5020323;28;45426;-81
2022/02/28 09:23:30;;;;;;;;;18.00;17.00;;;;;4.91;59.13;102199.13;5019560;28;45472;-86
2022/02/28 09:25:55;;;;;;;;;19.25;17.50;;;;;5.06;59.33;102217.69;5020516;28;45617;-84
2022/02/28 09:28:21;;;;;;;;;23.25;20.25;;;;;4.99;59.16;102206.69;5019964;28;46395;-86
2022/02/28 09:30:46;;;;;;;;;35.25;29.75;;;;;5.50;58.86;102292.41;5019998;28;45361;-83
2022/02/28 09:33:12;;;;;;;;;19.75;18.50;;;;;5.55;58.62;102294.59;5020285;28;45232;-83
2022/02/28 09:35:37;;;;;;;;;18.00;16.25;;;;;5.27;58.62;102241.97;5021329;28;45811;-79
2022/02/28 09:38:03;;;;;;;;;28.50;21.75;;;;;5.67;58.77;102297.28;5020036;28;46120;-85
2022/02/28 09:40:30;;;;;;;;;23.00;19.50;;;;;5.59;58.31;102286.22;5021511;28;45634;-79
2022/02/28 09:42:59;;;;;;;;;21.25;20.00;;;;;5.77;58.07;102298.94;5021139;28;45492;-84
2022/02/28 09:45:25;;;;;;;;;19.75;17.50;;;;;5.74;58.40;102290.84;5021471;28;45377;-82
2022/02/28 09:47:54;;;;;;;;;25.25;23.75;;;;;5.88;58.12;102311.09;5003317;28;48533;-85
2022/02/28 09:50:20;;;;;;;;;20.25;18.00;;;;;5.93;57.73;102308.09;5021085;28;45368;-83
2022/02/28 09:52:45;;;;;;;;;19.75;17.50;;;;;5.28;57.18;102177.72;5021058;28;45329;-89
2022/02/28 09:55:13;;;;;;;;;25.00;20.67;;;;;6.03;56.90;102303.59;5025785;28;45323;-82
2022/02/28 09:57:45;;;;;;;;;19.75;18.50;;;;;6.10;57.28;102300.66;5035769;28;45772;-82
2022/02/28 10:00:15;;;;;;;;;17.00;17.00;;;;;5.90;56.91;102245.19;5035079;28;45498;-79
2022/02/28 10:02:41;;;;;;;;;14.50;13.50;;;;;6.22;55.90;102282.44;5038324;28;45253;-81
2022/02/28 10:05:06;;;;;;;;;16.33;15.00;;;;;6.25;55.89;102275.72;5034174;28;45353;-81
2022/02/28 10:07:32;;;;;;;;;25.00;23.75;;;;;6.52;56.27;102294.31;5033010;28;45098;-84
2022/02/28 10:10:09;;;;;;;;;31.75;31.25;;;;;6.34;56.16;102245.09;5033117;28;44834;-82
2022/02/28 10:12:35;;;;;;;;;18.25;15.00;;;;;6.67;55.61;102287.63;5033405;28;44854;-81
2022/02/28 10:15:03;;;;;;;;;22.00;20.00;;;;;6.77;55.39;102282.28;5033327;28;45402;-83
2022/02/28 10:17:40;;;;;;;;;17.00;17.00;;;;;6.53;55.20;102223.88;5032256;28;45453;-82
2022/02/28 10:20:15;;;;;;;;;18.00;16.25;;;;;6.92;54.78;102280.81;5033755;28;45021;-82
2022/02/28 10:22:41;;;;;;;;;24.75;21.75;;;;;6.98;55.13;102286.47;5015145;28;45432;-82
2022/02/28 10:25:07;;;;;;;;;21.25;20.25;;;;;6.52;55.31;102189.84;5032714;28;45362;-81
2022/02/28 10:27:32;;;;;;;;;21.00;19.75;;;;;6.92;55.11;102253.75;5033628;28;45423;-78
2022/02/28 10:29:57;;;;;;;;;22.67;19.67;;;;;6.88;55.14;102244.78;5033943;28;44788;-80
2022/02/28 10:32:25;;;;;;;;;19.00;17.75;;;;;6.60;55.16;102181.78;5031989;28;45460;-81
2022/02/28 10:37:44;;;;;;;;;36.25;35.25;;;;;7.35;54.14;102298.72;5031689;28;45575;-78
2022/02/28 10:40:10;;;;;;;;;26.75;23.25;;;;;7.08;54.01;102246.22;5032105;28;45134;-79
2022/02/28 10:42:45;;;;;;;;;17.25;16.00;;;;;7.45;54.11;102303.81;5033040;28;45198;-80
2022/02/28 10:45:24;;;;;;;;;22.75;20.75;;;;;7.37;53.58;102270.97;5032032;28;45407;-81
2022/02/28 10:47:52;;;;;;;;;33.25;30.25;;;;;7.43;53.40;102260.94;5031595;28;45503;-83
2022/02/28 10:50:38;;;;;;;;;58.25;47.25;;;;;7.59;53.06;102282.19;5011908;28;45344;-79
2022/02/28 10:53:11;;;;;;;;;23.50;22.00;;;;;7.06;53.13;102179.88;5005462;28;45333;-80
2022/02/28 10:55:36;;;;;;;;;24.00;22.00;;;;;7.71;53.20;102274.28;5021505;28;45430;-83
2022/02/28 10:58:10;;;;;;;;;25.50;22.25;;;;;7.82;52.87;102267.16;5021683;28;45596;-78
2022/02/28 11:01:04;;;;;;;;;26.50;22.25;;;;;7.99;53.01;102271.88;5022164;28;45691;-79
2022/02/28 11:03:50;;;;;;;;;23.25;21.25;;;;;8.09;52.93;102279.56;5021402;28;45417;-86
2022/02/28 11:06:20;;;;;;;;;20.25;18.75;;;;;8.14;52.13;102278.19;5020120;28;45526;-80
2022/02/28 11:08:45;;;;;;;;;23.50;21.75;;;;;8.16;51.93;102279.19;5002842;28;47301;-85
2022/02/28 11:11:12;;;;;;;;;22.00;20.75;;;;;8.01;52.13;102233.63;5002361;28;45430;-86
2022/02/28 11:13:38;;;;;;;;;18.00;15.75;;;;;8.37;51.85;102276.25;5022091;28;45429;-80
2022/02/28 11:16:04;;;;;;;;;20.00;18.25;;;;;8.51;51.53;102280.72;5023276;28;45537;-80